Time;durP1;ratioP1;P1;durP2;ratioP2;P2;SDS_P1;SDS_P2;PMS_P1;PMS_P2;Temp;Humidity;BMP_temperature;BMP_pressure;BME280_temperature;BME280_humidity;BME280_pressure;Samples;Min_cycle;Max_cycle;Signal;HPM_P1;HPM_P2
2022/12/11 00:01:11;;;;;;;8.73;5.30;;;;;;;2.29;100.00;98664.06;5010402;28;20502;-51
2022/12/11 00:03:37;;;;;;;10.70;5.38;;;;;;;2.35;100.00;98678.50;5009071;28;20429;-48
2022/12/11 00:06:12;;;;;;;10.23;5.18;;;;;;;2.32;100.00;98674.25;4990971;28;20049;-47
2022/12/11 00:08:38;;;;;;;11.02;5.10;;;;;;;2.03;100.00;98620.94;4991167;28;20042;-50
2022/12/11 00:11:07;;;;;;;11.40;5.50;;;;;;;2.18;100.00;98640.31;4991915;28;20225;-50
2022/12/11 00:13:33;;;;;;;11.65;5.57;;;;;;;2.36;100.00;98668.19;4989643;28;20038;-49
2022/12/11 00:15:59;;;;;;;9.35;5.32;;;;;;;2.35;100.00;98668.22;4974691;28;20041;-49
2022/12/11 00:18:25;;;;;;;11.52;5.65;;;;;;;2.37;100.00;98662.19;4991915;28;20046;-47
2022/12/11 00:20:50;;;;;;;10.98;6.30;;;;;;;2.38;100.00;98669.00;4991914;28;20601;-46
2022/12/11 00:23:16;;;;;;;10.07;5.57;;;;;;;2.36;100.00;98664.78;4993132;28;20125;-50
2022/12/11 00:25:46;;;;;;;9.77;5.80;;;;;;;2.37;100.00;98664.75;4989330;28;20049;-47
2022/12/11 00:28:13;;;;;;;;;;;;;;;2.38;100.00;98663.03;4978684;28;20038;-50
2022/12/11 00:30:42;;;;;;;12.55;6.05;;;;;;;2.34;100.00;98666.53;4990818;28;19909;-47
2022/12/11 00:33:10;;;;;;;12.13;6.80;;;;;;;2.37;100.00;98666.47;4992639;28;20141;-51
2022/12/11 00:35:40;;;;;;;13.75;6.40;;;;;;;2.38;100.00;98663.88;4990191;28;20049;-49
2022/12/11 00:38:06;;;;;;;11.70;6.35;;;;;;;2.18;100.00;98631.78;4971740;28;20047;-50
2022/12/11 00:40:35;;;;;;;11.93;6.45;;;;;;;2.35;100.00;98666.50;4971936;28;20057;-50
2022/12/11 00:43:02;;;;;;;12.98;6.47;;;;;;;2.04;100.00;98614.09;4983499;28;20035;-46
2022/12/11 00:45:28;;;;;;;11.98;6.72;;;;;;;2.22;100.00;98651.34;4983673;28;20133;-48
2022/12/11 00:47:53;;;;;;;10.93;6.30;;;;;;;2.25;100.00;98639.31;4990654;28;20165;-49
2022/12/11 00:50:19;;;;;;;14.93;7.30;;;;;;;2.39;100.00;98663.00;4981252;28;20050;-45
2022/12/11 00:52:45;;;;;;;14.10;7.28;;;;;;;2.39;100.00;98670.72;4987879;28;20046;-50
2022/12/11 00:55:12;;;;;;;15.30;6.90;;;;;;;2.40;100.00;98667.28;4971765;28;20051;-50
2022/12/11 00:57:38;;;;;;;15.73;7.45;;;;;;;2.38;100.00;98663.88;4981263;28;20046;-48
2022/12/11 01:00:06;;;;;;;17.90;8.15;;;;;;;2.38;100.00;98678.41;4972732;28;20058;-46
2022/12/11 01:02:33;;;;;;;16.27;7.68;;;;;;;2.39;100.00;98690.38;4979488;28;20038;-48
2022/12/11 01:04:59;;;;;;;15.18;7.35;;;;;;;2.40;100.00;98689.50;4980253;28;20070;-47
2022/12/11 01:07:25;;;;;;;15.05;7.57;;;;;;;2.44;100.00;98691.13;4971598;28;20679;-48
2022/12/11 01:12:35;;;;;;;13.57;6.72;;;;;;;2.39;100.00;98683.53;4976237;28;20054;-48
2022/12/11 01:15:01;;;;;;;12.82;7.57;;;;;;;2.42;100.00;98690.31;4990339;28;20050;-52
2022/12/11 01:17:29;;;;;;;14.30;8.02;;;;;;;2.39;100.00;98693.78;4990824;28;20517;-48
2022/12/11 01:19:54;;;;;;;17.13;8.38;;;;;;;2.40;100.00;98690.34;4990229;28;20054;-47
2022/12/11 01:22:20;;;;;;;16.65;7.93;;;;;;;2.41;100.00;98696.31;4971525;28;20043;-48
2022/12/11 01:24:46;;;;;;;14.05;7.97;;;;;;;2.41;100.00;98689.47;4973435;28;20042;-51
2022/12/11 01:27:12;;;;;;;15.80;8.30;;;;;;;2.41;100.00;98694.59;4972387;28;20042;-47
2022/12/11 01:29:38;;;;;;;16.90;8.98;;;;;;;2.40;100.00;98685.22;4972308;28;20050;-48
2022/12/11 01:32:04;;;;;;;14.63;7.93;;;;;;;2.23;100.00;98669.28;4985398;28;20526;-48
2022/12/11 01:34:31;;;;;;;13.93;7.28;;;;;;;2.36;100.00;98682.72;4991012;28;20121;-48
2022/12/11 01:36:57;;;;;;;11.43;6.47;;;;;;;2.33;100.00;98688.75;4986734;28;20057;-47
2022/12/11 01:39:23;;;;;;;12.25;6.28;;;;;;;2.38;100.00;98686.97;4972433;28;20047;-50
2022/12/11 01:41:49;;;;;;;8.73;5.22;;;;;;;2.39;100.00;98692.94;4977820;28;20528;-47
2022/12/11 01:44:14;;;;;;;10.45;5.93;;;;;;;2.38;100.00;98691.25;4991569;28;20080;-47
2022/12/11 01:46:41;;;;;;;13.07;6.30;;;;;;;2.06;100.00;98636.25;4976705;28;20039;-47
2022/12/11 01:49:12;;;;;;;11.25;6.00;;;;;;;2.12;100.00;98648.09;4990152;28;20046;-49
2022/12/11 01:52:09;;;;;;;15.80;6.22;;;;;;;2.35;100.00;98692.16;4988700;28;20050;-49
2022/12/11 01:54:35;;;;;;;15.23;6.38;;;;;;;2.19;100.00;98670.22;4950034;28;20054;-47
2022/12/11 01:57:04;;;;;;;13.35;6.65;;;;;;;2.33;100.00;98691.31;4980150;28;20129;-49
2022/12/11 01:59:33;;;;;;;13.35;6.80;;;;;;;2.34;100.00;98694.75;4971825;28;20042;-49
2022/12/11 02:02:03;;;;;;;13.35;7.15;;;;;;;2.34;100.00;98700.72;4988548;28;20068;-47
2022/12/11 02:04:30;;;;;;;18.10;9.48;;;;;;;2.31;100.00;98697.34;4989400;28;20116;-47
2022/12/11 02:06:56;;;;;;;22.60;10.15;;;;;;;2.35;100.00;98693.88;4973550;28;20065;-48
2022/12/11 02:09:31;;;;;;;15.98;9.70;;;;;;;2.34;100.00;98699.88;4989963;28;20046;-47
2022/12/11 02:12:35;;;;;;;18.65;9.52;;;;;;;2.32;100.00;98704.16;4987717;28;20121;-46
2022/12/11 02:15:30;;;;;;;15.30;8.32;;;;;;;2.29;100.00;98707.66;4982566;28;20049;-48
2022/12/11 02:18:04;;;;;;;17.27;8.70;;;;;;;2.29;100.00;98717.06;5010611;28;20132;-52
2022/12/11 02:21:20;;;;;;;18.33;8.68;;;;;;;2.29;100.00;98709.34;4989912;28;20046;-46
2022/12/11 02:23:49;;;;;;;16.05;7.20;;;;;;;2.28;100.00;98715.34;4985941;28;20478;-50
2022/12/11 02:26:30;;;;;;;16.15;6.70;;;;;;;2.25;100.00;98718.81;4990813;28;20049;-46
2022/12/11 02:28:59;;;;;;;12.90;6.18;;;;;;;2.24;100.00;98719.69;5005949;28;20565;-48
2022/12/11 02:31:38;;;;;;;14.27;6.15;;;;;;;2.22;100.00;98729.13;4985230;28;20054;-48
2022/12/11 02:34:15;;;;;;;15.38;7.00;;;;;;;2.22;100.00;98735.97;5000288;28;20926;-46
2022/12/11 02:36:45;;;;;;;18.65;8.30;;;;;;;2.21;100.00;98731.69;4979555;28;20622;-47
2022/12/11 02:39:13;;;;;;;19.92;8.82;;;;;;;2.03;100.00;98707.22;4988632;28;20443;-47
2022/12/11 02:41:46;;;;;;;17.95;8.70;;;;;;;2.18;100.00;98735.19;4986425;28;20053;-47
2022/12/11 02:44:14;;;;;;;17.73;7.88;;;;;;;2.02;100.00;98713.22;4989087;28;20440;-45
2022/12/11 02:46:42;;;;;;;18.73;8.32;;;;;;;2.04;100.00;98714.06;4989325;28;20049;-50
2022/12/11 02:49:08;;;;;;;23.10;9.23;;;;;;;2.20;100.00;98747.97;5005499;28;20046;-49
2022/12/11 02:51:38;;;;;;;20.27;8.95;;;;;;;2.18;100.00;98744.59;4955421;28;20580;-46
2022/12/11 02:54:06;;;;;;;25.48;9.85;;;;;;;2.17;100.00;98735.19;4987568;28;20145;-45
2022/12/11 02:56:37;;;;;;;17.00;8.23;;;;;;;2.18;100.00;98753.13;4988958;28;20047;-46
2022/12/11 02:59:11;;;;;;;18.05;9.23;;;;;;;2.19;100.00;98754.81;4999288;28;20065;-50
2022/12/11 03:01:37;;;;;;;17.55;7.00;;;;;;;1.97;100.00;98730.38;4976568;28;20097;-46
2022/12/11 03:04:03;;;;;;;13.95;6.20;;;;;;;2.13;100.00;98765.16;4972422;28;20041;-50
2022/12/11 03:06:37;;;;;;;17.77;6.65;;;;;;;2.14;100.00;98766.88;4984876;28;20133;-50
2022/12/11 03:09:04;;;;;;;14.48;6.72;;;;;;;2.15;100.00;98770.28;4969884;28;20117;-46
2022/12/11 03:11:30;;;;;;;14.48;6.40;;;;;;;2.02;100.00;98756.78;4955438;28;20122;-46
2022/12/11 03:13:56;;;;;;;13.00;6.10;;;;;;;1.94;100.00;98736.38;4977007;28;20564;-48
2022/12/11 03:16:36;;;;;;;18.92;7.00;;;;;;;2.15;100.00;98777.97;4985460;28;20563;-46
2022/12/11 03:19:14;;;;;;;16.05;6.50;;;;;;;2.11;100.00;98772.03;4983209;28;20042;-49
2022/12/11 03:22:06;;;;;;;18.30;6.63;;;;;;;2.12;100.00;98771.16;4987859;28;20054;-48
2022/12/11 03:24:56;;;;;;;13.77;6.15;;;;;;;2.11;100.00;98770.31;4966866;28;20039;-45
2022/12/11 03:28:03;;;;;;;17.27;6.55;;;;;;;2.09;100.00;98771.22;5002424;28;20404;-50
2022/12/11 03:30:30;;;;;;;17.08;6.07;;;;;;;2.06;100.00;98784.91;4934805;29;20049;-47
2022/12/11 03:33:00;;;;;;;15.25;6.35;;;;;;;1.86;100.00;98748.47;4966015;28;20050;-48
2022/12/11 03:35:33;;;;;;;16.30;5.93;;;;;;;2.04;100.00;98788.38;4992535;28;20128;-47
2022/12/11 03:38:07;;;;;;;15.60;6.32;;;;;;;1.98;100.00;98776.50;4938498;28;20042;-50
2022/12/11 03:40:35;;;;;;;16.27;6.95;;;;;;;2.04;100.00;98786.63;4974947;28;20046;-48
2022/12/11 03:43:01;;;;;;;15.45;6.20;;;;;;;2.02;100.00;98793.53;4985273;28;20034;-48
2022/12/11 03:45:28;;;;;;;15.95;6.32;;;;;;;2.02;100.00;98780.72;4972173;28;20043;-49
2022/12/11 03:47:56;;;;;;;13.68;6.47;;;;;;;2.02;100.00;98785.84;4973071;28;20097;-50
2022/12/11 03:50:22;;;;;;;14.20;6.10;;;;;;;2.02;100.00;98790.97;4964542;28;20047;-48
2022/12/11 03:52:49;;;;;;;18.17;6.28;;;;;;;2.02;100.00;98806.34;4982146;28;20063;-47
2022/12/11 03:55:16;;;;;;;20.02;7.07;;;;;;;1.98;100.00;98809.81;4984332;28;20062;-44
2022/12/11 03:57:43;;;;;;;18.45;7.35;;;;;;;1.98;100.00;98814.09;4991173;28;20070;-44
2022/12/11 04:00:12;;;;;;;22.27;8.05;;;;;;;1.95;100.00;98820.09;4993313;28;20038;-46
2022/12/11 04:02:38;;;;;;;;;;;;;;;1.96;100.00;98826.94;4982909;28;20048;-48
2022/12/11 04:05:04;;;;;;;14.27;6.88;;;;;;;1.95;100.00;98829.50;4991618;28;20016;-49
2022/12/11 04:07:30;;;;;;;16.30;6.65;;;;;;;1.97;100.00;98836.31;4988848;28;20045;-46
2022/12/11 04:09:56;;;;;;;13.98;6.60;;;;;;;1.99;100.00;98839.69;4972645;28;20038;-45
2022/12/11 04:12:22;;;;;;;15.27;6.28;;;;;;;2.00;100.00;98840.53;4989284;28;20125;-48
2022/12/11 04:15:03;;;;;;;14.35;6.03;;;;;;;2.00;100.00;98845.66;4988229;28;20096;-49
2022/12/11 04:26:10;;;;;;;18.55;7.28;;;;;;;1.95;100.00;98838.03;4990965;28;20544;-48
2022/12/11 04:28:36;;;;;;;19.98;7.63;;;;;;;1.97;100.00;98850.84;4988004;28;20152;-50
2022/12/11 04:31:03;;;;;;;22.27;7.57;;;;;;;1.97;100.00;98840.59;4989183;28;20043;-46
2022/12/11 04:33:29;;;;;;;18.25;7.75;;;;;;;1.94;100.00;98832.94;4974338;28;20809;-47
2022/12/11 04:35:59;;;;;;;22.08;8.70;;;;;;;1.94;100.00;98849.16;4992505;28;20523;-46
2022/12/11 04:38:25;;;;;;;19.63;7.60;;;;;;;1.96;100.00;98844.88;4975380;28;20526;-48
2022/12/11 04:41:02;;;;;;;22.65;8.13;;;;;;;1.96;100.00;98842.31;4972008;28;20093;-49
2022/12/11 04:43:28;;;;;;;19.25;6.70;;;;;;;1.97;100.00;98843.16;4974156;28;20066;-47
2022/12/11 04:46:04;;;;;;;18.80;7.68;;;;;;;1.88;100.00;98822.78;4977928;28;20681;-50
2022/12/11 04:48:31;;;;;;;17.75;7.60;;;;;;;1.95;100.00;98840.59;4972989;28;20041;-46
2022/12/11 04:50:56;;;;;;;21.90;7.45;;;;;;;1.79;100.00;98810.06;4971917;28;20042;-45
2022/12/11 04:53:22;;;;;;;23.40;7.38;;;;;;;1.92;100.00;98832.97;4972982;28;20051;-47
2022/12/11 04:55:48;;;;;;;21.05;8.15;;;;;;;1.74;100.00;98807.56;4992117;28;20042;-49
2022/12/11 04:58:16;;;;;;;22.20;8.15;;;;;;;1.90;100.00;98844.09;4990333;28;20105;-45
2022/12/11 05:00:42;;;;;;;18.13;7.47;;;;;;;1.92;100.00;98839.81;4990847;28;20038;-47
2022/12/11 05:03:08;;;;;;;21.30;8.10;;;;;;;1.90;100.00;98834.69;4988315;28;20146;-48
2022/12/11 05:05:34;;;;;;;24.00;7.80;;;;;;;1.91;100.00;98841.53;4990051;28;20213;-46
2022/12/11 05:08:00;;;;;;;18.60;7.13;;;;;;;1.90;100.00;98844.09;4980237;28;20038;-46
2022/12/11 05:10:26;;;;;;;19.25;7.80;;;;;;;1.88;100.00;98851.81;4985510;28;20030;-44
2022/12/11 05:12:52;;;;;;;20.83;8.35;;;;;;;1.68;100.00;98825.59;4991995;28;20537;-46
2022/12/11 05:15:18;;;;;;;18.45;8.23;;;;;;;1.88;100.00;98853.53;4991671;28;20121;-48
2022/12/11 05:17:44;;;;;;;23.15;8.48;;;;;;;1.87;100.00;98849.28;4999884;28;20047;-47
2022/12/11 05:20:10;;;;;;;20.40;8.00;;;;;;;1.89;100.00;98865.47;4971114;28;20035;-47
2022/12/11 05:22:37;;;;;;;18.25;7.78;;;;;;;1.59;100.00;98816.31;4978833;28;20038;-47
2022/12/11 05:25:03;;;;;;;18.98;8.07;;;;;;;1.90;100.00;98878.25;4974004;28;20046;-47
2022/12/11 05:27:29;;;;;;;20.92;8.27;;;;;;;1.56;100.00;98821.47;4958007;28;20072;-45
2022/12/11 05:29:55;;;;;;;16.98;7.57;;;;;;;1.85;100.00;98876.63;4990647;28;20640;-48
2022/12/11 05:32:21;;;;;;;16.60;7.00;;;;;;;1.88;100.00;98881.72;4991732;28;20050;-46
2022/12/11 05:34:47;;;;;;;21.05;8.80;;;;;;;1.88;100.00;98884.28;4988170;28;20050;-47
2022/12/11 05:37:13;;;;;;;23.30;9.50;;;;;;;1.89;100.00;98885.97;4980589;28;20038;-46
2022/12/11 05:39:39;;;;;;;20.75;8.75;;;;;;;1.90;100.00;98895.34;4988953;28;20042;-49
2022/12/11 05:42:04;;;;;;;24.05;8.93;;;;;;;1.89;100.00;98896.22;4975564;28;20248;-51
2022/12/11 05:44:30;;;;;;;19.77;8.38;;;;;;;1.90;100.00;98920.97;4989617;28;20097;-47
2022/12/11 05:46:56;;;;;;;23.75;8.90;;;;;;;1.88;100.00;98923.59;4991396;28;20053;-49
2022/12/11 05:49:22;;;;;;;21.00;8.43;;;;;;;1.87;100.00;98918.47;4987511;28;20046;-47
2022/12/11 05:51:48;;;;;;;17.58;7.57;;;;;;;1.86;100.00;98919.31;4989265;28;20042;-50
2022/12/11 05:54:14;;;;;;;24.05;9.70;;;;;;;1.89;100.00;98929.53;4987562;28;20529;-50
2022/12/11 05:56:40;;;;;;;27.35;9.40;;;;;;;1.77;100.00;98915.16;4973345;28;20514;-52
2022/12/11 05:59:06;;;;;;;23.73;9.63;;;;;;;1.89;100.00;98943.19;4989817;28;20100;-51
2022/12/11 06:01:37;;;;;;;21.52;8.57;;;;;;;1.57;100.00;98909.41;4983326;28;20049;-44
2022/12/11 06:04:04;;;;;;;25.42;10.10;;;;;;;1.86;100.00;98952.63;4987189;28;20050;-45
2022/12/11 06:06:30;;;;;;;23.13;9.65;;;;;;;1.86;100.00;98956.06;4990502;28;20069;-47
2022/12/11 06:08:57;;;;;;;25.73;10.70;;;;;;;1.88;100.00;98956.91;4988809;28;20042;-50
2022/12/11 06:11:24;;;;;;;23.10;10.30;;;;;;;1.70;100.00;98936.59;4997972;28;20042;-51
2022/12/11 06:13:51;;;;;;;27.17;11.10;;;;;;;1.90;100.00;98977.34;4956248;28;20041;-46
2022/12/11 06:16:17;;;;;;;29.90;11.05;;;;;;;1.88;100.00;98986.81;4996870;28;20557;-47
2022/12/11 06:18:44;;;;;;;33.50;11.85;;;;;;;1.90;100.00;98990.19;4983057;28;20050;-51
2022/12/11 06:21:30;;;;;;;27.50;11.50;;;;;;;1.91;100.00;98987.59;4986425;28;20050;-52
2022/12/11 06:24:00;;;;;;;24.80;11.27;;;;;;;1.89;100.00;98984.19;4996447;28;20153;-49
2022/12/11 06:26:27;;;;;;;27.63;12.00;;;;;;;1.90;100.00;98991.03;4992569;28;20509;-48
2022/12/11 06:28:53;;;;;;;25.27;10.75;;;;;;;1.93;100.00;98988.44;4988812;28;20034;-47
2022/12/11 06:31:19;;;;;;;22.48;9.93;;;;;;;1.95;100.00;99002.06;4972553;28;20129;-48
2022/12/11 06:33:46;;;;;;;21.30;8.95;;;;;;;1.82;100.00;98974.03;4989070;28;20046;-47
2022/12/11 06:36:17;;;;;;;17.88;8.10;;;;;;;1.98;100.00;98998.66;4985289;28;20558;-49
2022/12/11 06:38:43;;;;;;;19.33;7.65;;;;;;;1.98;100.00;99002.06;4991368;28;20045;-45
2022/12/11 06:41:10;;;;;;;21.42;8.70;;;;;;;1.95;100.00;99009.78;4981141;28;20034;-51
2022/12/11 06:43:38;;;;;;;18.00;7.90;;;;;;;1.98;100.00;99006.34;4985626;28;20554;-51
2022/12/11 06:46:05;;;;;;;20.70;8.70;;;;;;;1.97;100.00;98996.94;4979924;28;20042;-48
2022/12/11 06:48:31;;;;;;;26.27;11.45;;;;;;;1.84;100.00;98977.41;4987328;28;20038;-48
2022/12/11 06:50:57;;;;;;;24.48;11.27;;;;;;;1.96;100.00;98995.25;4983325;28;20049;-49
2022/12/11 06:53:23;;;;;;;24.77;11.38;;;;;;;1.94;100.00;98995.25;5000884;28;20148;-48
2022/12/11 06:55:49;;;;;;;33.10;14.18;;;;;;;1.97;100.00;98986.69;4987831;28;20119;-46
2022/12/11 06:58:15;;;;;;;21.45;9.98;;;;;;;1.97;100.00;98984.13;4991709;28;20104;-45
2022/12/11 07:00:41;;;;;;;26.38;11.73;;;;;;;1.97;100.00;98989.25;4987213;28;20035;-51
2022/12/11 07:03:09;;;;;;;23.45;9.82;;;;;;;1.97;100.00;98981.56;4983383;28;20042;-46
2022/12/11 07:05:35;;;;;;;22.15;9.25;;;;;;;1.79;100.00;98971.50;5001894;28;20047;-46
2022/12/11 07:08:01;;;;;;;21.27;8.98;;;;;;;1.97;100.00;98995.22;4986860;28;20034;-48
2022/12/11 07:10:27;;;;;;;23.08;8.15;;;;;;;1.99;100.00;99006.28;4988550;28;20041;-50
2022/12/11 07:12:53;;;;;;;18.60;7.95;;;;;;;1.64;100.00;98950.31;4982756;28;20129;-50
2022/12/11 07:15:19;;;;;;;23.30;8.52;;;;;;;2.00;100.00;99002.88;4984460;28;20133;-47
2022/12/11 07:17:45;;;;;;;17.55;7.53;;;;;;;1.85;100.00;98974.84;4988215;28;20129;-49
2022/12/11 07:20:11;;;;;;;18.50;8.43;;;;;;;2.06;100.00;99012.22;4971768;28;20489;-50
2022/12/11 07:22:37;;;;;;;18.50;8.35;;;;;;;2.11;100.00;99015.56;4987554;28;20060;-49
2022/12/11 07:25:03;;;;;;;20.17;8.38;;;;;;;1.92;100.00;98985.91;4966622;28;20046;-48
2022/12/11 07:27:29;;;;;;;17.75;8.45;;;;;;;2.15;100.00;99018.97;4985459;28;20031;-47
2022/12/11 07:29:55;;;;;;;15.50;7.15;;;;;;;2.13;100.00;99017.28;4985323;28;20042;-52
2022/12/11 07:32:21;;;;;;;12.15;7.03;;;;;;;2.14;100.00;99020.69;4977319;28;20100;-47
2022/12/11 07:34:48;;;;;;;15.45;6.78;;;;;;;1.98;100.00;98989.25;4979609;28;20046;-51
2022/12/11 07:37:14;;;;;;;13.45;6.75;;;;;;;2.16;100.00;99030.91;4972263;28;20065;-47
2022/12/11 07:39:40;;;;;;;14.65;7.18;;;;;;;2.15;100.00;99026.66;4980697;28;20519;-47
2022/12/11 07:42:06;;;;;;;15.75;7.18;;;;;;;2.10;100.00;99034.38;4966711;28;20125;-46
2022/12/11 07:44:31;;;;;;;17.15;7.22;;;;;;;2.11;100.00;99033.53;4974027;28;20537;-47
2022/12/11 07:46:58;;;;;;;15.80;6.35;;;;;;;2.12;100.00;99036.06;4978308;28;20189;-44
2022/12/11 07:49:23;;;;;;;15.60;6.93;;;;;;;2.15;100.00;99031.78;4974906;28;20581;-44
2022/12/11 07:51:49;;;;;;;15.68;7.32;;;;;;;2.11;100.00;99020.69;4984032;28;20034;-47
2022/12/11 07:54:15;;;;;;;14.38;7.35;;;;;;;2.07;100.00;99035.28;4976461;28;20069;-44
2022/12/11 07:56:45;;;;;;;16.30;7.35;;;;;;;2.05;100.00;99018.19;4980326;28;20133;-46
2022/12/11 07:59:11;;;;;;;19.58;8.13;;;;;;;1.92;100.00;99011.53;4992152;28;20061;-43
2022/12/11 08:01:38;;;;;;;16.13;7.70;;;;;;;2.10;100.00;99040.34;4977579;28;20078;-46
2022/12/11 08:04:10;;;;;;;16.23;7.65;;;;;;;2.10;100.00;99042.91;4976565;28;20116;-49
2022/12/11 08:06:38;;;;;;;18.75;7.50;;;;;;;1.93;100.00;99016.63;4970323;28;20042;-49
2022/12/11 08:09:06;;;;;;;17.80;7.82;;;;;;;2.06;100.00;99048.09;4993313;28;20109;-49
2022/12/11 08:11:33;;;;;;;15.05;7.15;;;;;;;2.05;100.00;99043.84;4983380;28;20038;-48
2022/12/11 08:13:59;;;;;;;18.27;7.28;;;;;;;1.75;100.00;99005.72;4979222;28;20065;-50
2022/12/11 08:16:26;;;;;;;14.77;7.18;;;;;;;2.04;100.00;99053.25;4990117;28;20121;-48
2022/12/11 08:18:52;;;;;;;17.30;8.00;;;;;;;2.05;100.00;99052.38;4988157;28;20038;-48
2022/12/11 08:21:22;;;;;;;17.92;7.43;;;;;;;2.08;100.00;99062.63;4980905;28;20125;-47
2022/12/11 08:23:50;;;;;;;12.68;7.18;;;;;;;2.11;100.00;99057.44;4996915;28;20041;-46
2022/12/11 08:26:19;;;;;;;15.30;7.15;;;;;;;1.91;100.00;99026.06;4989220;28;20038;-48
2022/12/11 08:28:45;;;;;;;;;;;;;;;2.10;100.00;99054.88;4981971;28;20061;-48
2022/12/11 08:31:12;;;;;;;13.57;6.47;;;;;;;2.09;100.00;99060.91;4989991;28;20000;-50
2022/12/11 08:33:40;;;;;;;16.77;8.10;;;;;;;2.11;100.00;99067.69;4989933;28;20074;-46
2022/12/11 08:36:08;;;;;;;19.58;8.00;;;;;;;2.18;100.00;99073.63;4981633;28;20050;-46
2022/12/11 08:38:34;;;;;;;15.93;7.55;;;;;;;2.19;100.00;99082.16;4981374;28;20049;-51
2022/12/11 08:41:14;;;;;;;17.55;8.27;;;;;;;2.19;100.00;99083.03;4982826;28;20042;-48
2022/12/11 08:43:39;;;;;;;17.30;7.78;;;;;;;2.28;100.00;99092.31;4987511;28;20185;-45
2022/12/11 08:46:06;;;;;;;12.68;6.95;;;;;;;2.35;100.00;99086.28;4992339;28;20173;-43
2022/12/11 08:48:33;;;;;;;15.88;7.40;;;;;;;2.36;100.00;99087.94;4990602;28;20120;-45
2022/12/11 08:51:00;;;;;;;15.10;7.45;;;;;;;2.37;100.00;99098.19;4989975;28;20054;-46
2022/12/11 08:53:28;;;;;;;15.77;7.57;;;;;;;2.41;100.00;99104.97;4976884;28;20035;-44
2022/12/11 08:56:02;;;;;;;16.67;8.27;;;;;;;2.26;100.00;99079.50;4972193;28;20047;-48
2022/12/11 08:58:28;;;;;;;18.58;8.52;;;;;;;2.40;100.00;99107.59;4974145;28;20467;-48
2022/12/11 09:00:54;;;;;;;15.30;7.88;;;;;;;2.37;100.00;99111.03;4981630;28;20137;-48
2022/12/11 09:03:20;;;;;;;15.45;8.27;;;;;;;2.34;100.00;99108.50;5000188;28;20683;-46
2022/12/11 09:05:46;;;;;;;18.65;8.32;;;;;;;2.33;100.00;99105.94;4974439;28;20054;-45
2022/12/11 09:08:12;;;;;;;16.17;8.40;;;;;;;2.37;100.00;99113.59;4983842;28;20045;-47
2022/12/11 09:10:37;;;;;;;17.65;8.25;;;;;;;2.42;100.00;99100.72;4991890;28;20458;-46
2022/12/11 09:13:03;;;;;;;17.02;9.35;;;;;;;2.34;100.00;99085.41;4991997;28;20111;-46
2022/12/11 09:15:29;;;;;;;16.23;8.02;;;;;;;2.49;100.00;99100.63;4990903;28;20050;-48
2022/12/11 09:17:55;;;;;;;17.85;8.80;;;;;;;2.51;100.00;99101.44;4991830;28;20049;-47
2022/12/11 09:20:21;;;;;;;15.18;7.95;;;;;;;2.51;100.00;99103.19;4993612;28;20054;-49
2022/12/11 09:22:47;;;;;;;18.77;8.68;;;;;;;2.49;100.00;99110.91;4987529;28;20590;-48
2022/12/11 09:25:13;;;;;;;16.02;8.68;;;;;;;2.47;100.00;99120.31;4974901;28;20164;-47
2022/12/11 09:27:39;;;;;;;20.33;9.10;;;;;;;2.49;100.00;99116.03;4987331;28;20030;-48
2022/12/11 09:30:05;;;;;;;17.92;7.95;;;;;;;2.47;100.00;99117.75;4971070;28;20038;-47
2022/12/11 09:32:31;;;;;;;15.32;8.10;;;;;;;2.19;100.00;99074.47;4972399;28;20042;-46
2022/12/11 09:34:57;;;;;;;18.05;8.32;;;;;;;2.45;100.00;99109.25;4979206;28;20130;-44
2022/12/11 09:37:23;;;;;;;16.30;7.97;;;;;;;2.43;100.00;99103.25;4987125;28;20129;-45
2022/12/11 09:39:49;;;;;;;20.70;9.57;;;;;;;2.40;100.00;99121.25;4972325;28;20109;-47
2022/12/11 09:42:22;;;;;;;14.73;8.60;;;;;;;2.39;100.00;99122.13;4986923;28;20153;-45
2022/12/11 09:44:52;;;;;;;18.65;8.77;;;;;;;2.41;100.00;99112.69;4978183;28;20411;-45
2022/12/11 09:47:17;;;;;;;15.13;8.02;;;;;;;2.41;100.00;99132.34;4991679;28;20043;-47
2022/12/11 09:49:44;;;;;;;18.08;8.48;;;;;;;2.02;100.00;99083.19;4990756;28;20045;-45
2022/12/11 09:52:12;;;;;;;16.85;8.73;;;;;;;2.38;100.00;99151.19;4990867;28;20038;-44
2022/12/11 09:54:47;;;;;;;18.02;8.50;;;;;;;2.35;100.00;99160.66;4968894;28;20051;-46
2022/12/11 09:57:24;;;;;;;18.45;8.45;;;;;;;2.35;100.00;99171.75;4989845;28;20490;-46
2022/12/11 10:00:25;;;;;;;16.50;8.75;;;;;;;2.37;100.00;99175.16;4970144;28;20039;-46
2022/12/11 10:03:13;;;;;;;20.42;9.43;;;;;;;2.38;100.00;99171.72;4986412;28;20124;-45
2022/12/11 10:05:46;;;;;;;16.80;9.05;;;;;;;2.37;100.00;99167.44;4984926;28;20042;-46
2022/12/11 10:08:24;;;;;;;17.52;8.90;;;;;;;2.38;100.00;99170.88;4991033;28;20066;-47
2022/12/11 10:11:18;;;;;;;16.73;8.90;;;;;;;2.38;100.00;99170.88;4972977;28;20054;-43
2022/12/11 10:13:55;;;;;;;19.52;9.07;;;;;;;2.34;100.00;99164.94;4989693;28;20072;-44
2022/12/11 10:16:43;;;;;;;16.48;8.68;;;;;;;2.32;100.00;99165.78;4986305;28;20519;-47
2022/12/11 10:19:29;;;;;;;19.10;8.23;;;;;;;2.29;100.00;99153.88;4992334;28;20042;-45
2022/12/11 10:21:55;;;;;;;19.85;8.73;;;;;;;2.30;100.00;99157.28;4970099;28;20047;-46
2022/12/11 10:24:24;;;;;;;15.68;8.52;;;;;;;2.29;100.00;99137.63;4970104;28;20047;-45
2022/12/11 10:26:54;;;;;;;20.17;9.20;;;;;;;2.24;100.00;99141.94;4986233;28;20035;-43
2022/12/11 10:29:20;;;;;;;14.93;8.13;;;;;;;2.20;100.00;99150.53;4973008;28;20061;-47
2022/12/11 10:31:54;;;;;;;20.40;8.50;;;;;;;2.17;100.00;99146.28;4973051;28;20176;-47
2022/12/11 10:34:29;;;;;;;17.73;8.25;;;;;;;1.99;100.00;99108.00;4971251;28;20042;-46
2022/12/11 10:36:55;;;;;;;17.90;8.38;;;;;;;2.11;100.00;99129.25;4982458;28;20053;-47
2022/12/11 10:39:22;;;;;;;17.95;8.88;;;;;;;2.11;100.00;99129.25;4976813;28;20092;-48
2022/12/11 10:41:52;;;;;;;16.20;7.60;;;;;;;1.91;100.00;99105.50;4969313;28;20053;-45
2022/12/11 10:44:18;;;;;;;18.15;9.13;;;;;;;2.08;100.00;99144.66;4986691;28;20441;-47
2022/12/11 10:46:46;;;;;;;19.25;8.82;;;;;;;2.06;100.00;99138.69;4988396;28;20049;-45
2022/12/11 10:49:26;;;;;;;18.92;8.18;;;;;;;2.03;100.00;99131.03;4988573;28;20053;-46
2022/12/11 10:51:54;;;;;;;19.20;8.52;;;;;;;2.01;100.00;99139.59;4978259;28;20481;-48
2022/12/11 10:55:06;;;;;;;18.50;8.05;;;;;;;1.97;100.00;99131.09;4988681;28;20048;-47
2022/12/11 10:57:36;;;;;;;20.08;8.88;;;;;;;1.90;100.00;99139.69;4946365;28;20057;-47
2022/12/11 11:00:06;;;;;;;14.88;8.07;;;;;;;1.83;100.00;99138.06;4969360;28;20043;-49
2022/12/11 11:02:37;;;;;;;16.35;8.38;;;;;;;1.92;100.00;99149.94;4969373;28;20046;-46
2022/12/11 11:05:12;;;;;;;18.45;7.85;;;;;;;1.92;100.00;99148.22;4986739;28;20176;-50
2022/12/11 11:07:38;;;;;;;20.48;9.25;;;;;;;1.91;100.00;99146.50;4989989;28;20061;-50
2022/12/11 11:10:10;;;;;;;17.85;8.90;;;;;;;1.89;100.00;99137.13;4987989;28;20458;-50
2022/12/11 11:12:43;;;;;;;20.15;8.45;;;;;;;1.89;100.00;99132.84;4988722;28;20149;-47
2022/12/11 11:15:19;;;;;;;21.85;9.45;;;;;;;1.90;100.00;99131.13;4988366;28;20046;-47
2022/12/11 11:17:49;;;;;;;17.25;8.20;;;;;;;1.91;100.00;99141.38;4969288;28;20043;-46
2022/12/11 11:20:17;;;;;;;16.48;7.72;;;;;;;1.90;100.00;99134.56;4971751;28;20053;-46
2022/12/11 11:22:50;;;;;;;20.33;8.68;;;;;;;1.89;100.00;99125.16;4986208;28;20046;-45
2022/12/11 11:25:19;;;;;;;18.33;9.63;;;;;;;1.84;100.00;99118.38;4973042;28;20065;-45
2022/12/11 11:27:50;;;;;;;14.95;8.00;;;;;;;1.49;100.00;99064.88;4969747;28;20093;-48
2022/12/11 11:30:18;;;;;;;20.13;7.78;;;;;;;1.84;100.00;99120.94;4987956;28;20050;-46
2022/12/11 11:32:44;;;;;;;16.80;8.13;;;;;;;1.78;100.00;99111.56;4988302;28;20057;-46
2022/12/11 11:35:10;;;;;;;16.38;7.70;;;;;;;1.78;100.00;99114.16;5003517;28;20058;-48
2022/12/11 11:37:38;;;;;;;16.70;8.23;;;;;;;1.77;100.00;99104.78;4982464;28;20047;-48
2022/12/11 11:40:14;;;;;;;14.25;8.20;;;;;;;1.78;100.00;99113.31;4981483;28;20040;-46
2022/12/11 11:42:45;;;;;;;15.73;7.90;;;;;;;1.61;100.00;99095.50;4977457;28;20058;-50
2022/12/11 11:45:16;;;;;;;15.98;8.40;;;;;;;1.75;100.00;99109.06;4976189;28;20062;-49
2022/12/11 11:47:54;;;;;;;18.33;7.95;;;;;;;1.63;100.00;99084.38;4984394;28;20511;-50